OISY  Yasouj  Airport

Iran

Add Bookmark
ICAO OISY
Type Airport
Status Operational
Latitude
30° 42' 1" N
30.700500
Longitude
51° 32' 42" E
51.545101
Local (GMT +4.5 ) UTC
Aug 27, 2016 02:18 pm Aug 27, 2016 09:48
Sunrise-Sunset Local UTC
Begin Civil Twilight 06:11 am 01:41
Sunrise 06:36 am 02:06
Sunset 07:33 pm 15:03
End Civil Twilight 07:58 pm 15:28
VFR
VFR
MVFR
MVFR
IFR
IFR
LIFR
LIFR
Unknown
Unavailable

Current Weather

METAR Observed VFR
OISY 270900Z 00000KT CAVOK 32/M02 Q1023 Sat, Aug 27, 2016 @ 09:00 UTC
(48 Minutes ago)
Visual Flight Rules
Wind Visibility Conditions
Calm 10 km or more
  • No significant weather
Temperatures Readings Precipitation
Current Temp
32°C
90°F
Dewpoint
-2°C
28°F
Humidity 11%
Altimeter 30.21" Hg
Sea Level Pressure 1,023 mb
Field Elevation
1,811 m
5,942 ft
None Recorded

Additional weather within a 92.6km radius of OISY

Map ICAO Location
OIAH 79.6km W/SW (240°)
VFR
VFR
MVFR
MVFR
IFR
IFR
LIFR
LIFR
Unknown
Unavailable
-
-

CheckWX.com is intended as a tool to help pilots better visualize weather data. It is not intended as a substitute for an official weather briefing obtained from a Flight Service Station. CheckWX.com does not meet the FAA requirements for an official pre-flight weather briefing. Therefore, it's important that pilots still call and obtain an official FSS pre-flight weather briefing.

© 2007-2016 CheckWX.com
09:48:17 UTC